createdAt,value
2023-01-09T00:01:11.719Z,7.20
2023-01-09T00:03:43.067Z,4.72
2023-01-09T00:06:10.913Z,8.55
2023-01-09T00:08:38.643Z,7.22
2023-01-09T00:11:06.831Z,4.57
2023-01-09T00:13:34.931Z,8.43
2023-01-09T00:16:04.783Z,6.38
2023-01-09T00:18:32.568Z,6.43
2023-01-09T00:21:00.614Z,8.63
2023-01-09T00:23:33.473Z,7.78
2023-01-09T00:26:05.667Z,4.07
2023-01-09T00:28:33.269Z,6.72
2023-01-09T00:31:01.916Z,4.72
2023-01-09T00:33:35.516Z,4.57
2023-01-09T00:36:03.129Z,5.85
2023-01-09T00:38:30.638Z,6.67
2023-01-09T00:40:58.345Z,3.92
2023-01-09T00:43:30.770Z,8.10
2023-01-09T00:45:58.670Z,8.40
2023-01-09T00:48:29.180Z,4.03
2023-01-09T00:50:59.804Z,6.97
2023-01-09T00:53:28.690Z,5.10
2023-01-09T00:55:58.056Z,4.07
2023-01-09T00:58:25.897Z,8.25
2023-01-09T01:00:53.586Z,4.03
2023-01-09T01:03:21.400Z,6.37
2023-01-09T01:06:06.575Z,5.53
2023-01-09T01:08:35.608Z,7.28
2023-01-09T01:11:05.456Z,6.10
2023-01-09T01:13:33.202Z,4.38
2023-01-09T01:16:00.803Z,9.83
2023-01-09T01:18:28.824Z,3.97
2023-01-09T01:20:56.479Z,6.70
2023-01-09T01:23:24.043Z,4.72
2023-01-09T01:25:53.485Z,7.05
2023-01-09T01:28:21.149Z,8.77
2023-01-09T01:30:48.817Z,2.97
2023-01-09T01:33:16.342Z,8.88
2023-01-09T01:35:43.899Z,6.72
2023-01-09T01:38:11.636Z,7.47
2023-01-09T01:40:40.653Z,6.27
2023-01-09T01:43:14.435Z,6.82
2023-01-09T01:45:42.263Z,6.25
2023-01-09T01:48:10.541Z,4.78
2023-01-09T01:50:39.628Z,3.78
2023-01-09T01:53:10.407Z,9.17
2023-01-09T01:55:40.239Z,6.65
2023-01-09T01:58:10.136Z,4.40
2023-01-09T02:00:41.829Z,6.00
2023-01-09T02:03:09.708Z,4.65
2023-01-09T02:05:38.957Z,6.27
2023-01-09T02:08:09.637Z,9.60
2023-01-09T02:10:38.649Z,11.52
2023-01-09T02:13:07.450Z,5.72
2023-01-09T02:15:39.373Z,8.05
2023-01-09T02:18:24.608Z,11.90
2023-01-09T02:20:58.172Z,5.88
2023-01-09T02:23:40.582Z,12.15
2023-01-09T02:26:24.538Z,7.68
2023-01-09T02:29:06.944Z,5.15
2023-01-09T02:31:41.114Z,6.20
2023-01-09T02:34:13.359Z,10.55
2023-01-09T02:36:47.281Z,7.13
2023-01-09T02:39:23.512Z,8.90
2023-01-09T02:41:54.361Z,13.07
2023-01-09T02:44:22.996Z,10.23
2023-01-09T02:47:03.117Z,11.57
2023-01-09T02:49:31.156Z,9.20
2023-01-09T02:52:02.874Z,7.47
2023-01-09T02:54:35.716Z,11.23
2023-01-09T02:57:13.642Z,11.27
2023-01-09T02:59:48.763Z,8.65
2023-01-09T03:02:29.602Z,13.77
2023-01-09T03:05:00.598Z,10.82
2023-01-09T03:07:31.587Z,8.85
2023-01-09T03:10:01.329Z,5.63
2023-01-09T03:12:30.595Z,11.57
2023-01-09T03:14:59.643Z,6.38
2023-01-09T03:17:30.430Z,13.88
2023-01-09T03:19:58.285Z,8.93
2023-01-09T03:22:25.995Z,7.33
2023-01-09T03:24:54.702Z,9.38
2023-01-09T03:27:22.340Z,10.40
2023-01-09T03:29:51.197Z,8.02
2023-01-09T03:32:18.775Z,10.77
2023-01-09T03:34:47.804Z,9.53
2023-01-09T03:37:15.468Z,8.18
2023-01-09T03:39:43.551Z,11.20
2023-01-09T03:42:11.141Z,12.73
2023-01-09T03:44:40.155Z,12.23
2023-01-09T03:47:08.103Z,14.03
2023-01-09T03:49:35.732Z,16.90
2023-01-09T03:52:04.929Z,7.40
2023-01-09T03:54:32.618Z,8.73
2023-01-09T03:57:00.193Z,8.35
2023-01-09T03:59:27.838Z,9.17
2023-01-09T04:01:55.761Z,12.70
2023-01-09T04:04:23.516Z,9.38
2023-01-09T04:06:53.002Z,11.05
2023-01-09T04:09:22.022Z,10.88
2023-01-09T04:11:49.668Z,9.20
2023-01-09T04:14:17.523Z,7.65
2023-01-09T04:16:45.126Z,6.55
2023-01-09T04:19:12.745Z,7.50
2023-01-09T04:21:40.287Z,10.68
2023-01-09T04:24:08.320Z,8.47
2023-01-09T04:26:37.502Z,9.38
2023-01-09T04:29:05.134Z,10.40
2023-01-09T04:31:32.869Z,8.85
2023-01-09T04:34:04.491Z,7.10
2023-01-09T04:36:34.589Z,8.33
2023-01-09T04:39:02.105Z,11.82
2023-01-09T04:41:48.034Z,13.27
2023-01-09T04:44:17.168Z,8.05
2023-01-09T04:46:44.819Z,6.50
2023-01-09T04:49:12.678Z,10.73
2023-01-09T04:51:40.167Z,9.77
2023-01-09T04:54:08.313Z,8.60
2023-01-09T04:56:36.342Z,8.45
2023-01-09T04:59:04.067Z,8.85
2023-01-09T05:01:33.260Z,11.33
2023-01-09T05:04:01.077Z,12.15
2023-01-09T05:06:29.103Z,7.45
2023-01-09T05:08:57.361Z,9.57
2023-01-09T05:11:25.698Z,5.68
2023-01-09T05:13:53.288Z,10.07
2023-01-09T05:16:21.299Z,9.20
2023-01-09T05:18:54.588Z,6.88
2023-01-09T05:21:22.180Z,5.68
2023-01-09T05:23:49.711Z,6.40
2023-01-09T05:26:17.283Z,7.43
2023-01-09T05:28:44.858Z,6.50
2023-01-09T05:31:12.378Z,8.73
2023-01-09T05:33:40.066Z,8.05
2023-01-09T05:36:09.526Z,8.20
2023-01-09T05:38:37.046Z,5.07
2023-01-09T05:41:04.654Z,6.68
2023-01-09T05:43:32.272Z,5.80
2023-01-09T05:45:59.863Z,9.80
2023-01-09T05:48:27.809Z,5.45
2023-01-09T05:50:55.491Z,11.57
2023-01-09T05:53:24.475Z,11.57
2023-01-09T05:55:52.148Z,7.03
2023-01-09T05:58:19.832Z,7.43
2023-01-09T06:00:48.447Z,11.15
2023-01-09T06:03:16.157Z,14.77
2023-01-09T06:05:44.907Z,13.77
2023-01-09T06:08:12.537Z,9.23
2023-01-09T06:10:44.661Z,13.93
2023-01-09T06:13:12.335Z,8.90
2023-01-09T06:15:39.937Z,11.20
2023-01-09T06:18:07.722Z,7.80
2023-01-09T06:20:35.672Z,17.98
2023-01-09T06:23:03.167Z,11.05
2023-01-09T06:25:30.912Z,12.13
2023-01-09T06:27:59.940Z,8.20
2023-01-09T06:30:27.574Z,11.85
2023-01-09T06:32:56.323Z,10.85
2023-01-09T06:35:23.981Z,16.13
2023-01-09T06:37:51.489Z,11.95
2023-01-09T06:40:21.371Z,11.87
2023-01-09T06:42:49.375Z,12.10
2023-01-09T06:45:18.346Z,11.60
2023-01-09T06:47:46.132Z,9.13
2023-01-09T06:50:14.031Z,9.35
2023-01-09T06:52:41.528Z,12.33
2023-01-09T06:55:09.694Z,10.07
2023-01-09T06:57:39.853Z,7.30
2023-01-09T07:00:07.941Z,12.38
2023-01-09T07:02:36.945Z,11.80
2023-01-09T07:05:07.967Z,10.47
2023-01-09T07:07:36.428Z,12.38
2023-01-09T07:10:04.191Z,7.30
2023-01-09T07:12:31.829Z,9.23
2023-01-09T07:14:59.356Z,8.50
2023-01-09T07:17:27.670Z,11.20
2023-01-09T07:19:56.602Z,9.35
2023-01-09T07:22:24.154Z,9.60
2023-01-09T07:24:55.165Z,6.47
2023-01-09T07:27:23.420Z,9.93
2023-01-09T07:29:51.258Z,12.03
2023-01-09T07:32:19.186Z,9.85
2023-01-09T07:34:46.941Z,8.55
2023-01-09T07:37:15.801Z,10.43
2023-01-09T07:39:43.558Z,8.68
2023-01-09T07:42:11.235Z,8.57
2023-01-09T07:44:38.752Z,3.95
2023-01-09T07:47:06.682Z,4.80
2023-01-09T07:49:34.378Z,4.90
2023-01-09T07:52:02.220Z,5.75
2023-01-09T07:54:31.242Z,6.23
2023-01-09T07:56:58.966Z,5.78
2023-01-09T07:59:28.229Z,3.97
2023-01-09T08:01:55.912Z,2.75
2023-01-09T08:04:28.976Z,9.40
2023-01-09T08:06:57.031Z,5.40
2023-01-09T08:09:24.565Z,3.53
2023-01-09T08:11:53.726Z,6.07
2023-01-09T08:14:21.428Z,5.00
2023-01-09T08:16:48.922Z,8.82
2023-01-09T08:19:16.582Z,4.87
2023-01-09T08:21:44.368Z,7.72
2023-01-09T08:24:12.018Z,2.88
2023-01-09T08:26:39.602Z,1.48
2023-01-09T08:29:08.712Z,4.88
2023-01-09T08:31:36.383Z,3.93
2023-01-09T08:34:04.081Z,4.50
2023-01-09T08:36:35.727Z,3.67
2023-01-09T08:39:03.297Z,3.13
2023-01-09T08:41:49.249Z,5.13
2023-01-09T08:44:35.559Z,4.80
2023-01-09T08:47:10.290Z,4.43
2023-01-09T08:49:38.948Z,3.22
2023-01-09T08:52:07.270Z,2.58
2023-01-09T08:54:36.855Z,6.57
2023-01-09T08:57:04.373Z,5.90
2023-01-09T08:59:33.722Z,3.42
2023-01-09T09:02:07.380Z,4.07
2023-01-09T09:04:35.002Z,2.42
2023-01-09T09:07:02.575Z,4.00
2023-01-09T09:09:30.330Z,5.63
2023-01-09T09:11:58.103Z,5.80
2023-01-09T09:14:43.183Z,1.92
2023-01-09T09:17:12.300Z,3.00
2023-01-09T09:19:42.512Z,2.25
2023-01-09T09:22:10.146Z,2.50
2023-01-09T09:24:37.896Z,2.70
2023-01-09T09:27:05.505Z,1.58
2023-01-09T09:29:33.377Z,2.05
2023-01-09T09:32:01.804Z,2.70
2023-01-09T09:34:32.282Z,2.03
2023-01-09T09:37:01.562Z,4.45
2023-01-09T09:39:30.354Z,2.15
2023-01-09T09:42:31.851Z,2.20
2023-01-09T09:45:06.698Z,2.80
2023-01-09T09:47:43.368Z,2.10
2023-01-09T09:50:29.776Z,1.50
2023-01-09T09:53:02.216Z,3.17
2023-01-09T09:55:32.194Z,1.60
2023-01-09T09:58:01.234Z,1.13
2023-01-09T10:00:29.065Z,1.80
2023-01-09T10:02:59.622Z,1.70
2023-01-09T10:05:29.034Z,1.92
2023-01-09T10:08:05.828Z,2.05
2023-01-09T10:10:42.419Z,1.70
2023-01-09T10:13:26.514Z,2.07
2023-01-09T10:16:00.548Z,2.47
2023-01-09T10:18:33.556Z,3.38
2023-01-09T10:21:03.478Z,3.03
2023-01-09T10:23:46.290Z,2.35
2023-01-09T10:26:19.411Z,2.63
2023-01-09T10:29:01.788Z,1.75
2023-01-09T10:31:33.349Z,3.22
2023-01-09T10:34:07.989Z,1.85
2023-01-09T10:36:46.726Z,2.75
2023-01-09T10:39:19.191Z,2.53
2023-01-09T10:41:52.644Z,3.83
2023-01-09T10:44:22.181Z,1.95
2023-01-09T10:46:54.426Z,2.28
2023-01-09T10:49:23.100Z,4.47
2023-01-09T10:51:51.432Z,5.10
2023-01-09T10:54:21.605Z,2.95
2023-01-09T10:56:54.789Z,2.72
2023-01-09T10:59:22.757Z,2.40
2023-01-09T11:01:50.461Z,2.67
2023-01-09T11:04:24.707Z,5.93
2023-01-09T11:06:53.851Z,4.68
2023-01-09T11:09:21.555Z,8.48
2023-01-09T11:11:52.683Z,6.28
2023-01-09T11:14:28.299Z,3.97
2023-01-09T11:16:56.966Z,5.33
2023-01-09T11:19:25.663Z,4.50
2023-01-09T11:22:07.398Z,3.70
2023-01-09T11:24:35.211Z,5.05
2023-01-09T11:27:27.513Z,8.43
2023-01-09T11:30:08.543Z,2.70
2023-01-09T11:32:36.658Z,1.83
2023-01-09T11:35:05.671Z,8.13
2023-01-09T11:37:34.517Z,2.30
2023-01-09T11:40:02.558Z,4.88
2023-01-09T11:42:49.016Z,3.07
2023-01-09T11:45:20.800Z,10.38
2023-01-09T11:47:49.163Z,5.47
2023-01-09T11:50:21.347Z,3.10
2023-01-09T11:53:06.399Z,8.43
2023-01-09T11:55:41.816Z,6.53
2023-01-09T11:58:13.293Z,4.53
2023-01-09T12:00:45.484Z,8.25
2023-01-09T12:03:17.088Z,7.28
2023-01-09T12:05:48.964Z,7.75
2023-01-09T12:08:20.251Z,8.23
2023-01-09T12:10:59.767Z,12.50
2023-01-09T12:13:34.911Z,7.70
2023-01-09T12:16:09.297Z,3.25
2023-01-09T12:18:41.423Z,3.58
2023-01-09T12:21:17.902Z,4.70
2023-01-09T12:23:51.865Z,7.20
2023-01-09T12:26:21.737Z,4.55
2023-01-09T12:28:58.096Z,4.85
2023-01-09T12:31:32.150Z,4.40
2023-01-09T12:34:05.550Z,7.00
2023-01-09T12:36:38.219Z,7.70
2023-01-09T12:39:15.139Z,6.00
2023-01-09T12:41:52.187Z,7.65
2023-01-09T12:44:35.894Z,13.05
2023-01-09T12:47:11.272Z,5.97
2023-01-09T12:49:42.726Z,11.73
2023-01-09T12:52:18.698Z,4.43
2023-01-09T12:54:48.421Z,6.65
2023-01-09T12:57:20.561Z,6.72
2023-01-09T12:59:51.525Z,6.50
2023-01-09T13:02:27.057Z,8.18
2023-01-09T13:04:57.826Z,6.03
2023-01-09T13:07:30.553Z,7.85
2023-01-09T13:10:00.840Z,8.43
2023-01-09T13:12:30.372Z,7.07
2023-01-09T13:15:01.816Z,13.73
2023-01-09T13:17:31.676Z,10.15
2023-01-09T13:19:59.437Z,9.27
2023-01-09T13:22:29.313Z,11.13
2023-01-09T13:25:17.627Z,6.43
2023-01-09T13:27:48.126Z,6.40
2023-01-09T13:30:21.004Z,8.52
2023-01-09T13:33:01.738Z,3.88
2023-01-09T13:35:29.397Z,4.82
2023-01-09T13:37:57.005Z,7.60
2023-01-09T13:40:30.465Z,8.10
2023-01-09T13:42:59.164Z,10.50
2023-01-09T13:45:30.476Z,3.85
2023-01-09T13:48:19.098Z,8.77
2023-01-09T13:50:47.190Z,10.67
2023-01-09T13:53:34.992Z,4.22
2023-01-09T13:56:07.114Z,7.53
2023-01-09T13:58:49.718Z,6.25
2023-01-09T14:01:37.538Z,12.65
2023-01-09T14:04:28.054Z,4.30
2023-01-09T14:07:14.423Z,5.28
2023-01-09T14:09:47.166Z,3.13
2023-01-09T14:12:16.470Z,5.53
2023-01-09T14:14:46.133Z,6.93
2023-01-09T14:17:18.446Z,5.53
2023-01-09T14:19:46.160Z,4.03
2023-01-09T14:22:25.487Z,10.88
2023-01-09T14:24:56.518Z,4.85
2023-01-09T14:27:42.944Z,8.50
2023-01-09T14:33:27.291Z,4.72
2023-01-09T14:35:56.319Z,6.35
2023-01-09T14:38:30.032Z,5.25
2023-01-09T14:41:00.847Z,8.50
2023-01-09T14:43:37.289Z,5.70
2023-01-09T14:46:10.012Z,6.82
2023-01-09T14:48:40.966Z,11.63
2023-01-09T14:51:11.334Z,6.68
2023-01-09T14:53:40.205Z,7.85
2023-01-09T14:56:24.907Z,7.17
2023-01-09T14:59:05.705Z,8.85
2023-01-09T15:01:35.456Z,5.75
2023-01-09T15:04:05.108Z,5.28
2023-01-09T15:06:35.642Z,4.00
2023-01-09T15:09:04.680Z,4.07
2023-01-09T15:11:34.653Z,6.13
2023-01-09T15:14:05.215Z,4.38
2023-01-09T15:16:33.827Z,6.20
2023-01-09T15:19:03.577Z,4.22
2023-01-09T15:21:32.082Z,5.90
2023-01-09T15:24:12.232Z,4.30
2023-01-09T15:26:41.225Z,9.23
2023-01-09T15:29:16.162Z,6.03
2023-01-09T15:31:44.337Z,5.70
2023-01-09T15:34:16.869Z,4.50
2023-01-09T15:36:44.947Z,7.15
2023-01-09T15:39:16.575Z,4.43
2023-01-09T15:42:05.245Z,7.00
2023-01-09T15:44:37.136Z,6.50
2023-01-09T15:47:07.664Z,3.77
2023-01-09T15:49:36.022Z,4.82
2023-01-09T15:52:04.526Z,5.22
2023-01-09T15:54:32.829Z,4.10
2023-01-09T15:57:18.847Z,7.43
2023-01-09T15:59:53.295Z,7.73
2023-01-09T16:02:38.961Z,4.28
2023-01-09T16:05:07.785Z,4.35
2023-01-09T16:07:36.483Z,4.57
2023-01-09T16:10:07.049Z,6.78
2023-01-09T16:12:34.893Z,6.43
2023-01-09T16:15:03.886Z,7.15
2023-01-09T16:17:31.972Z,5.75
2023-01-09T16:20:00.456Z,5.53
2023-01-09T16:22:29.647Z,6.30
2023-01-09T16:24:58.175Z,7.33
2023-01-09T16:27:27.468Z,5.35
2023-01-09T16:29:59.055Z,5.00
2023-01-09T16:32:29.110Z,10.07
2023-01-09T16:34:57.711Z,6.53
2023-01-09T16:37:26.047Z,9.67
2023-01-09T16:40:17.674Z,7.15
2023-01-09T16:43:03.738Z,9.32
2023-01-09T16:45:33.618Z,5.90
2023-01-09T16:48:03.138Z,6.65
2023-01-09T16:50:30.815Z,6.23
2023-01-09T16:52:58.492Z,10.50
2023-01-09T16:55:26.195Z,7.88
2023-01-09T16:57:55.747Z,8.90
2023-01-09T17:00:23.492Z,7.00
2023-01-09T17:02:51.071Z,7.90
2023-01-09T17:05:20.139Z,4.40
2023-01-09T17:07:47.792Z,5.75
2023-01-09T17:10:19.691Z,7.65
2023-01-09T17:12:47.276Z,3.75
2023-01-09T17:15:16.372Z,12.33
2023-01-09T17:17:43.942Z,8.18
2023-01-09T17:20:29.966Z,17.95
2023-01-09T17:22:58.975Z,9.77
2023-01-09T17:25:43.825Z,8.50
2023-01-09T17:28:32.622Z,7.33
2023-01-09T17:31:01.324Z,10.60
2023-01-09T17:33:29.150Z,7.78
2023-01-09T17:35:57.068Z,9.27
2023-01-09T17:38:26.327Z,11.88
2023-01-09T17:40:55.605Z,11.60
2023-01-09T17:43:24.110Z,8.55
2023-01-09T17:45:52.802Z,12.73
2023-01-09T17:48:21.997Z,5.97
2023-01-09T17:50:50.180Z,9.18
2023-01-09T17:53:20.686Z,8.67
2023-01-09T17:55:50.171Z,9.13
2023-01-09T17:58:27.143Z,16.45
2023-01-09T18:00:54.740Z,12.18
2023-01-09T18:03:24.336Z,14.18
2023-01-09T18:05:56.459Z,16.27
2023-01-09T18:08:24.131Z,10.20
2023-01-09T18:10:54.004Z,12.50
2023-01-09T18:13:21.574Z,8.40
2023-01-09T18:15:49.989Z,12.70
2023-01-09T18:18:17.805Z,15.53
2023-01-09T18:20:46.459Z,11.38
2023-01-09T18:23:14.324Z,11.43
2023-01-09T18:25:42.548Z,16.02
2023-01-09T18:28:15.129Z,11.45
2023-01-09T18:30:45.073Z,7.93
2023-01-09T18:33:15.685Z,10.25
2023-01-09T18:35:43.290Z,12.77
2023-01-09T18:38:11.392Z,10.52
2023-01-09T18:40:39.217Z,14.02
2023-01-09T18:43:07.935Z,16.80
2023-01-09T18:45:37.843Z,9.70
2023-01-09T18:48:05.905Z,11.10
2023-01-09T18:50:33.429Z,9.88
2023-01-09T18:53:01.321Z,9.02
2023-01-09T18:55:28.906Z,11.53
2023-01-09T18:57:56.770Z,11.40
2023-01-09T19:00:24.940Z,15.35
2023-01-09T19:02:53.964Z,15.68
2023-01-09T19:05:21.792Z,8.95
2023-01-09T19:07:49.504Z,16.77
2023-01-09T19:10:17.560Z,10.85
2023-01-09T19:12:45.137Z,13.15
2023-01-09T19:15:13.087Z,12.23
2023-01-09T19:17:41.189Z,23.33
2023-01-09T19:20:11.440Z,15.50
2023-01-09T19:22:39.321Z,10.20
2023-01-09T19:25:08.483Z,10.60
2023-01-09T19:27:38.190Z,15.65
2023-01-09T19:30:06.701Z,12.55
2023-01-09T19:32:34.253Z,10.97
2023-01-09T19:35:01.822Z,13.85
2023-01-09T19:37:31.182Z,10.93
2023-01-09T19:39:58.921Z,13.13
2023-01-09T19:42:26.494Z,16.17
2023-01-09T19:44:54.255Z,23.00
2023-01-09T19:47:22.107Z,16.20
2023-01-09T19:49:49.834Z,11.75
2023-01-09T19:52:17.859Z,14.68
2023-01-09T19:54:47.726Z,18.85
2023-01-09T19:57:15.366Z,14.07
2023-01-09T19:59:44.377Z,11.05
2023-01-09T20:02:13.133Z,12.77
2023-01-09T20:04:40.902Z,11.13
2023-01-09T20:07:08.694Z,14.10
2023-01-09T20:09:37.187Z,17.03
2023-01-09T20:12:06.489Z,13.95
2023-01-09T20:14:36.600Z,13.32
2023-01-09T20:17:04.363Z,18.10
2023-01-09T20:19:33.313Z,11.75
2023-01-09T20:22:01.288Z,16.33
2023-01-09T20:24:29.387Z,12.60
2023-01-09T20:26:57.088Z,14.88
2023-01-09T20:29:26.806Z,10.18
2023-01-09T20:31:54.400Z,17.23
2023-01-09T20:34:22.071Z,18.17
2023-01-09T20:36:49.958Z,18.15
2023-01-09T20:39:17.612Z,18.05
2023-01-09T20:41:49.456Z,14.88
2023-01-09T20:44:17.233Z,14.15
2023-01-09T20:46:47.935Z,16.83
2023-01-09T20:49:18.639Z,15.07
2023-01-09T20:51:47.096Z,15.98
2023-01-09T20:54:14.902Z,13.93
2023-01-09T20:56:42.596Z,11.73
2023-01-09T20:59:12.142Z,14.20
2023-01-09T21:01:40.231Z,14.45
2023-01-09T21:04:11.802Z,14.15
2023-01-09T21:06:39.561Z,14.65
2023-01-09T21:09:09.032Z,16.08
2023-01-09T21:11:38.393Z,9.67
2023-01-09T21:14:07.284Z,19.25
2023-01-09T21:16:35.209Z,18.77
2023-01-09T21:19:02.933Z,12.65
2023-01-09T21:21:31.984Z,18.30
2023-01-09T21:24:00.478Z,13.30
2023-01-09T21:26:30.573Z,12.10
2023-01-09T21:28:59.884Z,14.68
2023-01-09T21:31:29.826Z,12.77
2023-01-09T21:33:57.677Z,18.48
2023-01-09T21:36:25.462Z,12.17
2023-01-09T21:38:58.080Z,8.40
2023-01-09T21:41:43.526Z,11.18
2023-01-09T21:44:30.269Z,12.25
2023-01-09T21:46:58.645Z,11.82
2023-01-09T21:49:27.440Z,13.27
2023-01-09T21:51:55.070Z,11.95
2023-01-09T21:54:24.581Z,14.95
2023-01-09T21:56:53.966Z,11.95
2023-01-09T21:59:22.067Z,13.57
2023-01-09T22:01:50.534Z,8.57
2023-01-09T22:04:18.836Z,17.42
2023-01-09T22:06:46.834Z,23.70
2023-01-09T22:09:16.027Z,11.13
2023-01-09T22:11:45.067Z,13.00
2023-01-09T22:14:13.310Z,15.70
2023-01-09T22:16:41.233Z,22.25
2023-01-09T22:19:09.075Z,9.80
2023-01-09T22:21:36.729Z,14.27
2023-01-09T22:24:05.258Z,12.57
2023-01-09T22:26:34.033Z,15.30
2023-01-09T22:29:03.020Z,17.35
2023-01-09T22:31:32.834Z,12.98
2023-01-09T22:34:01.210Z,13.60
2023-01-09T22:36:29.839Z,13.52
2023-01-09T22:38:58.410Z,19.30
2023-01-09T22:41:28.804Z,19.35
2023-01-09T22:43:57.199Z,14.18
2023-01-09T22:46:26.304Z,12.82
2023-01-09T22:48:54.169Z,14.65
2023-01-09T22:51:22.336Z,12.90
2023-01-09T22:53:50.284Z,19.02
2023-01-09T22:56:18.723Z,10.13
2023-01-09T22:58:51.316Z,12.85
2023-01-09T23:01:19.568Z,14.30
2023-01-09T23:03:48.535Z,14.20
2023-01-09T23:06:17.143Z,14.43
2023-01-09T23:08:46.046Z,13.43
2023-01-09T23:11:14.831Z,15.63
2023-01-09T23:13:42.715Z,14.70
2023-01-09T23:16:10.594Z,20.93
2023-01-09T23:18:38.236Z,12.93
2023-01-09T23:21:07.212Z,12.40
2023-01-09T23:23:35.815Z,14.95
2023-01-09T23:26:04.770Z,10.93
2023-01-09T23:28:32.569Z,14.17
2023-01-09T23:31:00.170Z,9.40
2023-01-09T23:33:28.304Z,13.40
2023-01-09T23:35:55.956Z,17.75
2023-01-09T23:38:25.171Z,14.40
2023-01-09T23:40:56.717Z,12.13
2023-01-09T23:43:23.298Z,15.95
2023-01-09T23:45:51.612Z,12.38
2023-01-09T23:48:20.038Z,17.45
2023-01-09T23:50:49.855Z,16.13
2023-01-09T23:53:17.597Z,20.23
2023-01-09T23:55:47.936Z,12.50
2023-01-09T23:58:15.620Z,11.38
